KGZL

Stigler Regional Airport

Stigler, Oklahoma, USA
METAR KGZL 181335Z AUTO 07005KT 10SM CLR 05/03 A3014 RMK AO2
Observed Flight Rules
Dec-18 @ 13:35 UTC (11 minutes ago) Visual Flight Rules
Wind Visibility Clouds
70° at 5 knots 10 miles
  • Clear skies
Temperatures Readings
Current 5°C / 41°F
Dewpoint 3°C / 37°F
Humidity 87%
Altimeter 30.14" Hg
Pressure 1021 hPa
Elevation 183
METAR KGZL 181335Z AUTO 07005KT 10SM CLR 05/03 A3014 RMK AO2
Observed Flight Rules
Dec-18 @ 13:35 UTC
(11 minutes ago)
VFR
Wind Visibility
70° at 5 knots 10 miles
Clouds
  • Clear skies
Temperature Dewpoint
5°C / 41°F 3°C / 37°F
Humidity Altimeter Pressure
87% 30.14" Hg 1021 hPa